sensor_id;sensor_type;location;lat;lon;timestamp;pressure;altitude;pressure_sealevel;temperature;humidity
34742;BME280;20968;42.696;23.360;2024-01-30T00:02:16;97193.41;;;2.73;58.66
34742;BME280;20968;42.696;23.360;2024-01-30T00:04:42;97193.06;;;2.82;58.33
34742;BME280;20968;42.696;23.360;2024-01-30T00:07:07;97198.78;;;2.66;58.90
34742;BME280;20968;42.696;23.360;2024-01-30T00:09:32;97191.28;;;2.49;59.71
34742;BME280;20968;42.696;23.360;2024-01-30T00:11:58;97195.97;;;2.56;59.16
34742;BME280;20968;42.696;23.360;2024-01-30T00:14:23;97195.97;;;2.56;59.25
34742;BME280;20968;42.696;23.360;2024-01-30T00:16:50;97195.47;;;2.43;59.14
34742;BME280;20968;42.696;23.360;2024-01-30T00:19:16;97200.59;;;2.48;59.37
34742;BME280;20968;42.696;23.360;2024-01-30T00:21:41;97202.13;;;2.46;58.82
34742;BME280;20968;42.696;23.360;2024-01-30T00:24:07;97193.22;;;2.52;58.16
34742;BME280;20968;42.696;23.360;2024-01-30T00:26:32;97197.16;;;2.58;58.49
34742;BME280;20968;42.696;23.360;2024-01-30T00:28:58;97197.97;;;2.62;58.34
34742;BME280;20968;42.696;23.360;2024-01-30T00:31:24;97201.44;;;2.59;58.28
34742;BME280;20968;42.696;23.360;2024-01-30T00:33:49;97201.41;;;2.56;58.82
34742;BME280;20968;42.696;23.360;2024-01-30T00:36:14;97199.53;;;2.63;58.32
34742;BME280;20968;42.696;23.360;2024-01-30T00:38:40;97200.63;;;2.52;58.38
34742;BME280;20968;42.696;23.360;2024-01-30T00:41:07;97200.13;;;2.39;58.16
34742;BME280;20968;42.696;23.360;2024-01-30T00:43:33;97202.41;;;2.37;58.10
34742;BME280;20968;42.696;23.360;2024-01-30T00:45:59;97196.69;;;2.46;57.92
34742;BME280;20968;42.696;23.360;2024-01-30T00:48:24;97200.19;;;2.46;58.86
34742;BME280;20968;42.696;23.360;2024-01-30T00:50:50;97206.72;;;2.38;58.41
34742;BME280;20968;42.696;23.360;2024-01-30T00:53:15;97206.34;;;2.43;58.08
34742;BME280;20968;42.696;23.360;2024-01-30T00:55:41;97200.81;;;2.33;57.74
34742;BME280;20968;42.696;23.360;2024-01-30T00:58:06;97198.44;;;2.25;57.45
34742;BME280;20968;42.696;23.360;2024-01-30T01:00:32;97196.97;;;2.34;57.88
34742;BME280;20968;42.696;23.360;2024-01-30T01:03:00;97200.94;;;2.47;57.72
34742;BME280;20968;42.696;23.360;2024-01-30T01:05:26;97202.91;;;2.46;57.53
34742;BME280;20968;42.696;23.360;2024-01-30T01:07:52;97207.25;;;2.58;57.41
34742;BME280;20968;42.696;23.360;2024-01-30T01:10:17;97197.22;;;2.62;57.34
34742;BME280;20968;42.696;23.360;2024-01-30T01:12:43;97196.03;;;2.63;57.62
34742;BME280;20968;42.696;23.360;2024-01-30T01:15:10;97198.78;;;2.66;57.72
34742;BME280;20968;42.696;23.360;2024-01-30T01:17:36;97200.34;;;2.71;57.94
34742;BME280;20968;42.696;23.360;2024-01-30T01:20:02;97204.56;;;2.61;57.69
34742;BME280;20968;42.696;23.360;2024-01-30T01:22:28;97200.19;;;2.46;58.01
34742;BME280;20968;42.696;23.360;2024-01-30T01:24:54;97202.47;;;2.44;57.97
34742;BME280;20968;42.696;23.360;2024-01-30T01:27:19;97203.34;;;2.55;57.86
34742;BME280;20968;42.696;23.360;2024-01-30T01:29:45;97199.41;;;2.46;58.18
34742;BME280;20968;42.696;23.360;2024-01-30T01:32:11;97206.44;;;2.50;58.49
34742;BME280;20968;42.696;23.360;2024-01-30T01:34:36;97209.88;;;2.44;58.66
34742;BME280;20968;42.696;23.360;2024-01-30T01:37:01;97206.69;;;2.35;58.81
34742;BME280;20968;42.696;23.360;2024-01-30T01:39:27;97213.28;;;2.37;58.74
34742;BME280;20968;42.696;23.360;2024-01-30T01:41:52;97205.34;;;2.15;58.97
34742;BME280;20968;42.696;23.360;2024-01-30T01:44:18;97207.06;;;2.33;58.84
34742;BME280;20968;42.696;23.360;2024-01-30T01:46:44;97210.97;;;2.36;58.87
34742;BME280;20968;42.696;23.360;2024-01-30T01:49:10;97200.06;;;2.32;58.87
34742;BME280;20968;42.696;23.360;2024-01-30T01:51:36;97195.38;;;2.29;59.01
34742;BME280;20968;42.696;23.360;2024-01-30T01:54:06;97203.88;;;2.25;59.14
34742;BME280;20968;42.696;23.360;2024-01-30T01:56:33;97203.84;;;2.21;58.97
34742;BME280;20968;42.696;23.360;2024-01-30T01:59:00;97216.56;;;2.14;58.88
34742;BME280;20968;42.696;23.360;2024-01-30T02:01:31;97209.31;;;2.25;58.99
34742;BME280;20968;42.696;23.360;2024-01-30T02:03:58;97210.94;;;2.32;59.26
34742;BME280;20968;42.696;23.360;2024-01-30T02:06:23;97203.13;;;2.28;59.33
34742;BME280;20968;42.696;23.360;2024-01-30T02:08:49;97212.59;;;2.04;59.52
34742;BME280;20968;42.696;23.360;2024-01-30T02:11:14;97215.00;;;2.13;59.71
34742;BME280;20968;42.696;23.360;2024-01-30T02:13:41;97218.19;;;2.22;59.56
34742;BME280;20968;42.696;23.360;2024-01-30T02:16:07;97214.72;;;2.25;59.25
34742;BME280;20968;42.696;23.360;2024-01-30T02:18:32;97213.19;;;2.27;59.36
34742;BME280;20968;42.696;23.360;2024-01-30T02:20:58;97210.53;;;2.34;58.97
34742;BME280;20968;42.696;23.360;2024-01-30T02:23:27;97213.31;;;2.41;59.03
34742;BME280;20968;42.696;23.360;2024-01-30T02:25:52;97210.59;;;2.41;59.14
34742;BME280;20968;42.696;23.360;2024-01-30T02:28:19;97205.56;;;2.39;58.99
34742;BME280;20968;42.696;23.360;2024-01-30T02:30:45;97204.38;;;2.37;59.02
34742;BME280;20968;42.696;23.360;2024-01-30T02:33:10;97206.03;;;2.48;58.71
34742;BME280;20968;42.696;23.360;2024-01-30T02:35:36;97203.94;;;2.31;58.98
34742;BME280;20968;42.696;23.360;2024-01-30T02:38:01;97203.22;;;2.38;58.77
34742;BME280;20968;42.696;23.360;2024-01-30T02:40:27;97208.31;;;2.46;58.01
34742;BME280;20968;42.696;23.360;2024-01-30T02:42:52;97207.97;;;2.51;58.17
34742;BME280;20968;42.696;23.360;2024-01-30T02:45:18;97206.47;;;2.54;58.04
34742;BME280;20968;42.696;23.360;2024-01-30T02:47:44;97207.22;;;2.54;57.39
34742;BME280;20968;42.696;23.360;2024-01-30T02:50:09;97207.66;;;2.56;57.44
34742;BME280;20968;42.696;23.360;2024-01-30T02:52:35;97209.16;;;2.50;57.62
34742;BME280;20968;42.696;23.360;2024-01-30T02:55:01;97214.50;;;2.43;57.25
34742;BME280;20968;42.696;23.360;2024-01-30T02:57:27;97216.50;;;2.50;56.99
34742;BME280;20968;42.696;23.360;2024-01-30T02:59:52;97209.53;;;2.52;56.52
34742;BME280;20968;42.696;23.360;2024-01-30T03:02:18;97207.22;;;2.54;56.52
34742;BME280;20968;42.696;23.360;2024-01-30T03:04:43;97209.94;;;2.54;56.85
34742;BME280;20968;42.696;23.360;2024-01-30T03:07:09;97208.31;;;2.46;57.41
34742;BME280;20968;42.696;23.360;2024-01-30T03:09:35;97198.94;;;2.37;57.55
34742;BME280;20968;42.696;23.360;2024-01-30T03:12:00;97201.31;;;2.42;56.95
34742;BME280;20968;42.696;23.360;2024-01-30T03:14:26;97201.78;;;2.51;57.15
34742;BME280;20968;42.696;23.360;2024-01-30T03:16:51;97204.09;;;2.52;56.75
34742;BME280;20968;42.696;23.360;2024-01-30T03:19:17;97197.47;;;2.46;57.25
34742;BME280;20968;42.696;23.360;2024-01-30T03:21:42;97202.16;;;2.49;56.92
34742;BME280;20968;42.696;23.360;2024-01-30T03:24:07;97195.91;;;2.45;56.49
34742;BME280;20968;42.696;23.360;2024-01-30T03:26:33;97200.66;;;2.55;56.33
34742;BME280;20968;42.696;23.360;2024-01-30T03:28:58;97206.47;;;2.54;56.70
34742;BME280;20968;42.696;23.360;2024-01-30T03:31:23;97195.97;;;2.56;56.30
34742;BME280;20968;42.696;23.360;2024-01-30T03:33:49;97193.56;;;2.44;56.30
34742;BME280;20968;42.696;23.360;2024-01-30T03:36:15;97198.63;;;2.45;56.46
34742;BME280;20968;42.696;23.360;2024-01-30T03:38:41;97193.06;;;2.31;56.67
34742;BME280;20968;42.696;23.360;2024-01-30T03:41:10;97192.28;;;2.31;55.80
34742;BME280;20968;42.696;23.360;2024-01-30T03:43:36;97190.50;;;2.52;55.85
34742;BME280;20968;42.696;23.360;2024-01-30T03:46:02;97185.88;;;2.53;55.46
34742;BME280;20968;42.696;23.360;2024-01-30T03:48:28;97182.31;;;2.45;55.84
34742;BME280;20968;42.696;23.360;2024-01-30T03:50:54;97186.63;;;2.53;55.80
34742;BME280;20968;42.696;23.360;2024-01-30T03:53:19;97185.50;;;2.58;55.63
34742;BME280;20968;42.696;23.360;2024-01-30T03:55:45;97188.28;;;2.65;56.07
34742;BME280;20968;42.696;23.360;2024-01-30T03:58:10;97182.88;;;2.68;55.43
34742;BME280;20968;42.696;23.360;2024-01-30T04:00:36;97181.31;;;2.67;55.48
34742;BME280;20968;42.696;23.360;2024-01-30T04:03:01;97178.88;;;2.52;55.70
34742;BME280;20968;42.696;23.360;2024-01-30T04:05:27;97176.47;;;2.43;55.70
34742;BME280;20968;42.696;23.360;2024-01-30T04:07:52;97172.59;;;2.44;55.93
34742;BME280;20968;42.696;23.360;2024-01-30T04:10:18;97176.19;;;2.55;55.66
34742;BME280;20968;42.696;23.360;2024-01-30T04:12:43;97176.22;;;2.62;55.33
34742;BME280;20968;42.696;23.360;2024-01-30T04:15:09;97179.34;;;2.61;55.67
34742;BME280;20968;42.696;23.360;2024-01-30T04:17:34;97189.34;;;2.50;55.18
34742;BME280;20968;42.696;23.360;2024-01-30T04:20:00;97180.34;;;2.42;55.53
34742;BME280;20968;42.696;23.360;2024-01-30T04:22:25;97184.69;;;2.50;55.78
34742;BME280;20968;42.696;23.360;2024-01-30T04:24:50;97186.16;;;2.41;56.26
34742;BME280;20968;42.696;23.360;2024-01-30T04:27:16;97188.88;;;2.41;56.09
34742;BME280;20968;42.696;23.360;2024-01-30T04:29:41;97183.84;;;2.43;56.65
34742;BME280;20968;42.696;23.360;2024-01-30T04:32:07;97190.84;;;2.44;56.10
34742;BME280;20968;42.696;23.360;2024-01-30T04:34:32;97193.16;;;2.42;56.15
34742;BME280;20968;42.696;23.360;2024-01-30T04:36:58;97187.75;;;2.45;56.24
34742;BME280;20968;42.696;23.360;2024-01-30T04:39:23;97194.69;;;2.39;56.30
34742;BME280;20968;42.696;23.360;2024-01-30T04:41:49;97195.81;;;2.35;56.46
34742;BME280;20968;42.696;23.360;2024-01-30T04:44:14;97192.28;;;2.31;57.07
34742;BME280;20968;42.696;23.360;2024-01-30T04:46:40;97196.06;;;2.20;56.65
34742;BME280;20968;42.696;23.360;2024-01-30T04:49:05;97193.03;;;2.28;57.22
34742;BME280;20968;42.696;23.360;2024-01-30T04:51:33;97203.03;;;2.21;57.16
34742;BME280;20968;42.696;23.360;2024-01-30T04:53:58;97205.03;;;2.24;57.20
34742;BME280;20968;42.696;23.360;2024-01-30T04:56:24;97214.34;;;2.26;57.19
34742;BME280;20968;42.696;23.360;2024-01-30T04:58:49;97212.44;;;2.27;57.48
34742;BME280;20968;42.696;23.360;2024-01-30T05:01:18;97209.34;;;2.28;57.85
34742;BME280;20968;42.696;23.360;2024-01-30T05:03:43;97213.19;;;2.27;57.99
34742;BME280;20968;42.696;23.360;2024-01-30T05:06:09;97213.94;;;2.24;58.43
34742;BME280;20968;42.696;23.360;2024-01-30T05:08:34;97215.50;;;2.25;58.18
34742;BME280;20968;42.696;23.360;2024-01-30T05:11:03;97217.47;;;2.28;58.29
34742;BME280;20968;42.696;23.360;2024-01-30T05:13:31;97210.88;;;2.26;58.02
34742;BME280;20968;42.696;23.360;2024-01-30T05:15:57;97213.94;;;2.24;58.59
34742;BME280;20968;42.696;23.360;2024-01-30T05:18:22;97214.00;;;2.28;57.86
34742;BME280;20968;42.696;23.360;2024-01-30T05:20:50;97209.75;;;2.30;57.77
34742;BME280;20968;42.696;23.360;2024-01-30T05:23:15;97219.09;;;2.32;57.60
34742;BME280;20968;42.696;23.360;2024-01-30T05:25:40;97222.50;;;2.26;57.61
34742;BME280;20968;42.696;23.360;2024-01-30T05:28:06;97220.09;;;2.18;57.68
34742;BME280;20968;42.696;23.360;2024-01-30T05:30:31;97208.81;;;2.16;57.57
34742;BME280;20968;42.696;23.360;2024-01-30T05:32:57;97214.97;;;2.09;56.69
34742;BME280;20968;42.696;23.360;2024-01-30T05:35:22;97210.34;;;2.13;57.06
34742;BME280;20968;42.696;23.360;2024-01-30T05:37:48;97215.00;;;2.13;56.48
34742;BME280;20968;42.696;23.360;2024-01-30T05:40:14;97211.94;;;2.14;56.98
34742;BME280;20968;42.696;23.360;2024-01-30T05:42:40;97220.28;;;1.99;57.43
34742;BME280;20968;42.696;23.360;2024-01-30T05:45:05;97222.28;;;2.02;57.62
34742;BME280;20968;42.696;23.360;2024-01-30T05:47:31;97223.00;;;1.99;57.16
34742;BME280;20968;42.696;23.360;2024-01-30T05:49:56;97221.31;;;1.87;57.65
34742;BME280;20968;42.696;23.360;2024-01-30T05:52:22;97227.41;;;1.74;56.79
34742;BME280;20968;42.696;23.360;2024-01-30T05:54:47;97218.41;;;1.70;56.91
34742;BME280;20968;42.696;23.360;2024-01-30T05:57:13;97222.75;;;1.74;57.02
34742;BME280;20968;42.696;23.360;2024-01-30T05:59:38;97226.06;;;1.61;56.69
34742;BME280;20968;42.696;23.360;2024-01-30T06:02:03;97227.25;;;1.63;57.30
34742;BME280;20968;42.696;23.360;2024-01-30T06:04:29;97219.44;;;1.58;57.69
34742;BME280;20968;42.696;23.360;2024-01-30T06:06:54;97222.75;;;1.74;57.60
34742;BME280;20968;42.696;23.360;2024-01-30T06:09:20;97232.94;;;1.84;57.23
34742;BME280;20968;42.696;23.360;2024-01-30T06:11:46;97224.06;;;1.91;57.22
34742;BME280;20968;42.696;23.360;2024-01-30T06:14:11;97228.25;;;1.81;57.35
34742;BME280;20968;42.696;23.360;2024-01-30T06:16:36;97234.94;;;1.91;56.88
34742;BME280;20968;42.696;23.360;2024-01-30T06:19:02;97234.22;;;1.94;57.31
34742;BME280;20968;42.696;23.360;2024-01-30T06:21:27;97235.34;;;1.93;57.66
34742;BME280;20968;42.696;23.360;2024-01-30T06:23:52;97226.09;;;1.97;57.81
34742;BME280;20968;42.696;23.360;2024-01-30T06:26:18;97232.38;;;2.01;57.10
34742;BME280;20968;42.696;23.360;2024-01-30T06:28:43;97226.13;;;2.01;57.55
34742;BME280;20968;42.696;23.360;2024-01-30T06:31:09;97234.28;;;2.01;57.92
34742;BME280;20968;42.696;23.360;2024-01-30T06:33:35;97230.84;;;2.04;57.28
34742;BME280;20968;42.696;23.360;2024-01-30T06:36:00;97233.44;;;1.93;57.10
34742;BME280;20968;42.696;23.360;2024-01-30T06:38:25;97232.16;;;1.84;56.03
34742;BME280;20968;42.696;23.360;2024-01-30T06:40:51;97243.31;;;1.75;54.84
34742;BME280;20968;42.696;23.360;2024-01-30T06:43:16;97244.69;;;1.95;55.07
34742;BME280;20968;42.696;23.360;2024-01-30T06:45:42;97228.53;;;2.09;54.38
34742;BME280;20968;42.696;23.360;2024-01-30T06:48:07;97234.81;;;2.13;54.41
34742;BME280;20968;42.696;23.360;2024-01-30T06:50:33;97233.59;;;2.07;54.36
34742;BME280;20968;42.696;23.360;2024-01-30T06:52:58;97243.00;;;2.17;54.25
34742;BME280;20968;42.696;23.360;2024-01-30T06:55:24;97242.66;;;2.25;54.46
34742;BME280;20968;42.696;23.360;2024-01-30T06:57:49;97245.47;;;2.35;53.93
34742;BME280;20968;42.696;23.360;2024-01-30T07:00:15;97244.78;;;2.42;54.26
34742;BME280;20968;42.696;23.360;2024-01-30T07:02:41;97246.78;;;2.48;53.73
34742;BME280;20968;42.696;23.360;2024-01-30T07:05:07;97240.72;;;2.62;53.34
34742;BME280;20968;42.696;23.360;2024-01-30T07:07:32;97243.09;;;2.70;53.85
34742;BME280;20968;42.696;23.360;2024-01-30T07:09:58;97243.56;;;2.79;52.50
34742;BME280;20968;42.696;23.360;2024-01-30T07:12:24;97244.75;;;2.85;51.69
34742;BME280;20968;42.696;23.360;2024-01-30T07:14:52;97245.97;;;2.91;52.82
34742;BME280;20968;42.696;23.360;2024-01-30T07:17:18;97245.69;;;3.03;52.12
34742;BME280;20968;42.696;23.360;2024-01-30T07:19:43;97235.09;;;2.91;51.12
34742;BME280;20968;42.696;23.360;2024-01-30T07:22:09;97240.31;;;2.63;51.51
34742;BME280;20968;42.696;23.360;2024-01-30T07:24:34;97243.50;;;2.72;51.71
34742;BME280;20968;42.696;23.360;2024-01-30T07:27:00;97241.47;;;2.62;51.21
34742;BME280;20968;42.696;23.360;2024-01-30T07:29:25;97242.44;;;2.40;51.36
34742;BME280;20968;42.696;23.360;2024-01-30T07:31:51;97235.59;;;2.57;51.50
34742;BME280;20968;42.696;23.360;2024-01-30T07:34:16;97239.81;;;2.51;51.77
34742;BME280;20968;42.696;23.360;2024-01-30T07:36:42;97240.59;;;2.51;52.73
34742;BME280;20968;42.696;23.360;2024-01-30T07:39:08;97243.03;;;2.63;52.24
34742;BME280;20968;42.696;23.360;2024-01-30T07:41:35;97243.50;;;2.72;51.42
34742;BME280;20968;42.696;23.360;2024-01-30T07:44:02;97244.66;;;2.71;50.80
34742;BME280;20968;42.696;23.360;2024-01-30T07:46:27;97238.34;;;2.60;50.52
34742;BME280;20968;42.696;23.360;2024-01-30T07:48:53;97234.94;;;2.70;50.64
34742;BME280;20968;42.696;23.360;2024-01-30T07:51:18;97235.41;;;2.79;50.86
34742;BME280;20968;42.696;23.360;2024-01-30T07:53:43;97240.44;;;2.77;50.19
34742;BME280;20968;42.696;23.360;2024-01-30T07:56:10;97242.72;;;2.75;50.31
34742;BME280;20968;42.696;23.360;2024-01-30T07:58:35;97243.09;;;2.70;49.82
34742;BME280;20968;42.696;23.360;2024-01-30T08:01:00;97237.47;;;2.49;50.66
34742;BME280;20968;42.696;23.360;2024-01-30T08:03:26;97233.56;;;2.47;50.64
34742;BME280;20968;42.696;23.360;2024-01-30T08:05:52;97232.16;;;2.63;50.38
34742;BME280;20968;42.696;23.360;2024-01-30T08:08:18;97231.13;;;2.78;52.56
34742;BME280;20968;42.696;23.360;2024-01-30T08:10:43;97233.38;;;2.69;50.54
34742;BME280;20968;42.696;23.360;2024-01-30T08:13:09;97234.69;;;2.93;50.43
34742;BME280;20968;42.696;23.360;2024-01-30T08:15:34;97230.84;;;2.97;49.89
34742;BME280;20968;42.696;23.360;2024-01-30T08:18:00;97232.94;;;3.21;48.73
34742;BME280;20968;42.696;23.360;2024-01-30T08:20:25;97238.81;;;3.23;48.86
34742;BME280;20968;42.696;23.360;2024-01-30T08:22:51;97233.84;;;3.39;48.96
34742;BME280;20968;42.696;23.360;2024-01-30T08:25:18;97240.09;;;3.46;49.27
34742;BME280;20968;42.696;23.360;2024-01-30T08:27:44;97235.06;;;3.52;49.41
34742;BME280;20968;42.696;23.360;2024-01-30T08:30:10;97243.94;;;3.38;49.39
34742;BME280;20968;42.696;23.360;2024-01-30T08:32:35;97245.22;;;3.55;48.93
34742;BME280;20968;42.696;23.360;2024-01-30T08:35:01;97244.53;;;3.75;49.52
34742;BME280;20968;42.696;23.360;2024-01-30T08:37:29;97257.78;;;3.87;47.46
34742;BME280;20968;42.696;23.360;2024-01-30T08:39:55;97248.78;;;3.73;48.92
34742;BME280;20968;42.696;23.360;2024-01-30T08:42:20;97247.59;;;3.70;48.58
34742;BME280;20968;42.696;23.360;2024-01-30T08:44:48;97241.38;;;3.70;49.63
34742;BME280;20968;42.696;23.360;2024-01-30T08:47:14;97246.81;;;3.63;49.63
34742;BME280;20968;42.696;23.360;2024-01-30T08:49:41;97249.13;;;3.61;49.84
34742;BME280;20968;42.696;23.360;2024-01-30T08:52:09;97248.41;;;3.74;48.79
34742;BME280;20968;42.696;23.360;2024-01-30T08:54:34;97252.72;;;3.79;47.67
34742;BME280;20968;42.696;23.360;2024-01-30T08:57:00;97251.09;;;3.67;48.54
34742;BME280;20968;42.696;23.360;2024-01-30T08:59:26;97256.16;;;3.72;48.37
34742;BME280;20968;42.696;23.360;2024-01-30T09:01:51;97258.19;;;3.89;48.42
34742;BME280;20968;42.696;23.360;2024-01-30T09:04:19;97256.22;;;3.83;49.04
34742;BME280;20968;42.696;23.360;2024-01-30T09:06:45;97256.94;;;3.69;48.81
34742;BME280;20968;42.696;23.360;2024-01-30T09:09:10;97258.53;;;3.77;49.54
34742;BME280;20968;42.696;23.360;2024-01-30T09:11:36;97259.34;;;3.88;49.09
34742;BME280;20968;42.696;23.360;2024-01-30T09:14:01;97251.22;;;4.02;49.73
34742;BME280;20968;42.696;23.360;2024-01-30T09:16:27;97251.63;;;4.00;49.59
34742;BME280;20968;42.696;23.360;2024-01-30T09:18:52;97251.63;;;4.00;51.64
34742;BME280;20968;42.696;23.360;2024-01-30T09:21:17;97251.66;;;4.14;50.40
34742;BME280;20968;42.696;23.360;2024-01-30T09:23:43;97237.97;;;3.93;50.62
34742;BME280;20968;42.696;23.360;2024-01-30T09:26:08;97253.16;;;3.94;50.90
34742;BME280;20968;42.696;23.360;2024-01-30T09:28:34;97241.50;;;4.04;50.96
34742;BME280;20968;42.696;23.360;2024-01-30T09:30:59;97235.25;;;3.97;51.32
34742;BME280;20968;42.696;23.360;2024-01-30T09:33:25;97238.75;;;4.01;50.27
34742;BME280;20968;42.696;23.360;2024-01-30T09:35:50;97239.53;;;3.91;50.57
34742;BME280;20968;42.696;23.360;2024-01-30T09:38:16;97235.22;;;3.80;50.08
34742;BME280;20968;42.696;23.360;2024-01-30T09:40:41;97231.91;;;3.43;51.78
34742;BME280;20968;42.696;23.360;2024-01-30T09:43:07;97235.88;;;3.56;51.26
34742;BME280;20968;42.696;23.360;2024-01-30T09:45:33;97228.44;;;3.49;50.93
34742;BME280;20968;42.696;23.360;2024-01-30T09:48:00;97214.81;;;3.46;51.15
34742;BME280;20968;42.696;23.360;2024-01-30T09:50:26;97234.34;;;3.65;51.34
34742;BME280;20968;42.696;23.360;2024-01-30T09:52:55;97233.16;;;3.56;50.99
34742;BME280;20968;42.696;23.360;2024-01-30T09:55:20;97226.81;;;4.68;61.27
34742;BME280;20968;42.696;23.360;2024-01-30T09:57:46;97233.03;;;4.72;48.74
34742;BME280;20968;42.696;23.360;2024-01-30T10:00:12;97230.31;;;4.75;48.86
34742;BME280;20968;42.696;23.360;2024-01-30T10:02:38;97228.78;;;4.74;49.27
34742;BME280;20968;42.696;23.360;2024-01-30T10:05:04;97227.56;;;4.68;48.91
34742;BME280;20968;42.696;23.360;2024-01-30T10:07:30;97218.81;;;5.74;55.85
34742;BME280;20968;42.696;23.360;2024-01-30T10:09:56;97222.56;;;6.73;44.56
34742;BME280;20968;42.696;23.360;2024-01-30T10:12:22;97219.78;;;6.15;45.77
34742;BME280;20968;42.696;23.360;2024-01-30T10:14:48;97212.19;;;5.79;45.97
34742;BME280;20968;42.696;23.360;2024-01-30T10:17:13;97216.63;;;5.17;46.91
34742;BME280;20968;42.696;23.360;2024-01-30T10:19:40;97226.75;;;5.27;46.65
34742;BME280;20968;42.696;23.360;2024-01-30T10:22:05;97213.56;;;4.91;47.44
34742;BME280;20968;42.696;23.360;2024-01-30T10:24:32;97220.94;;;4.83;47.63
34742;BME280;20968;42.696;23.360;2024-01-30T10:26:58;97222.13;;;4.58;47.58
34742;BME280;20968;42.696;23.360;2024-01-30T10:29:24;97221.75;;;4.63;47.87
34742;BME280;20968;42.696;23.360;2024-01-30T10:32:02;97221.34;;;4.71;48.26
34742;BME280;20968;42.696;23.360;2024-01-30T10:34:28;97223.69;;;4.76;47.28
34742;BME280;20968;42.696;23.360;2024-01-30T10:37:07;97222.13;;;4.89;47.16
34742;BME280;20968;42.696;23.360;2024-01-30T10:39:38;97219.38;;;4.79;47.73
34742;BME280;20968;42.696;23.360;2024-01-30T10:42:05;97215.50;;;4.66;47.39
34742;BME280;20968;42.696;23.360;2024-01-30T10:44:37;97208.50;;;4.93;47.15
34742;BME280;20968;42.696;23.360;2024-01-30T10:47:06;97209.28;;;4.69;47.91
34742;BME280;20968;42.696;23.360;2024-01-30T10:49:36;97208.47;;;4.75;48.06
34742;BME280;20968;42.696;23.360;2024-01-30T10:52:03;97207.31;;;4.76;46.90
34742;BME280;20968;42.696;23.360;2024-01-30T10:54:31;97198.75;;;4.74;47.48
34742;BME280;20968;42.696;23.360;2024-01-30T10:56:59;97197.19;;;4.63;48.19
34742;BME280;20968;42.696;23.360;2024-01-30T10:59:27;97196.78;;;4.75;48.43
34742;BME280;20968;42.696;23.360;2024-01-30T11:01:53;97197.56;;;4.65;48.65
34742;BME280;20968;42.696;23.360;2024-01-30T11:04:19;97182.38;;;4.64;47.64
34742;BME280;20968;42.696;23.360;2024-01-30T11:06:44;97189.00;;;4.59;47.79
34742;BME280;20968;42.696;23.360;2024-01-30T11:09:11;97184.72;;;4.48;48.14
34742;BME280;20968;42.696;23.360;2024-01-30T11:11:58;97186.66;;;4.55;47.77
34742;BME280;20968;42.696;23.360;2024-01-30T11:14:30;97179.25;;;4.48;48.94
34742;BME280;20968;42.696;23.360;2024-01-30T11:16:59;97177.72;;;4.68;48.47
34742;BME280;20968;42.696;23.360;2024-01-30T11:19:25;97172.25;;;4.68;48.78
34742;BME280;20968;42.696;23.360;2024-01-30T11:21:52;97175.00;;;4.54;48.08
34742;BME280;20968;42.696;23.360;2024-01-30T11:24:20;97172.63;;;4.46;48.32
34742;BME280;20968;42.696;23.360;2024-01-30T11:26:48;97173.44;;;4.50;48.33
34742;BME280;20968;42.696;23.360;2024-01-30T11:29:14;97173.03;;;4.30;48.67
34742;BME280;20968;42.696;23.360;2024-01-30T11:31:51;97175.75;;;4.20;49.84
34742;BME280;20968;42.696;23.360;2024-01-30T11:34:18;97176.13;;;4.22;49.04
34742;BME280;20968;42.696;23.360;2024-01-30T11:36:45;97175.75;;;4.27;48.50
34742;BME280;20968;42.696;23.360;2024-01-30T11:39:17;97173.03;;;4.37;48.23
34742;BME280;20968;42.696;23.360;2024-01-30T11:41:43;97166.78;;;4.33;48.21
34742;BME280;20968;42.696;23.360;2024-01-30T11:44:11;97163.69;;;4.28;49.19
34742;BME280;20968;42.696;23.360;2024-01-30T11:46:36;97168.72;;;4.15;48.75
34742;BME280;20968;42.696;23.360;2024-01-30T11:49:02;97163.28;;;4.29;49.71
34742;BME280;20968;42.696;23.360;2024-01-30T11:51:28;97169.53;;;4.44;48.83
34742;BME280;20968;42.696;23.360;2024-01-30T11:53:57;97168.75;;;4.81;48.67
34742;BME280;20968;42.696;23.360;2024-01-30T11:56:23;97157.31;;;5.28;46.79
34742;BME280;20968;42.696;23.360;2024-01-30T11:58:49;97162.72;;;5.45;46.84
34742;BME280;20968;42.696;23.360;2024-01-30T12:01:16;97157.09;;;5.87;46.48
34742;BME280;20968;42.696;23.360;2024-01-30T12:03:42;97148.31;;;6.17;44.83
34742;BME280;20968;42.696;23.360;2024-01-30T12:06:08;97139.94;;;6.41;43.87
34742;BME280;20968;42.696;23.360;2024-01-30T12:08:33;97136.53;;;6.23;44.39
34742;BME280;20968;42.696;23.360;2024-01-30T12:10:58;97133.69;;;6.84;43.77
34742;BME280;20968;42.696;23.360;2024-01-30T12:13:26;97126.59;;;6.90;43.41
34742;BME280;20968;42.696;23.360;2024-01-30T12:15:52;97123.22;;;7.12;42.82
34742;BME280;20968;42.696;23.360;2024-01-30T12:18:20;97121.00;;;7.34;42.64
34742;BME280;20968;42.696;23.360;2024-01-30T12:20:56;97126.53;;;7.64;42.34
34742;BME280;20968;42.696;23.360;2024-01-30T12:23:22;97121.66;;;8.04;41.86
34742;BME280;20968;42.696;23.360;2024-01-30T12:25:51;97120.28;;;7.63;41.02
34742;BME280;20968;42.696;23.360;2024-01-30T12:28:16;97126.22;;;7.58;41.75
34742;BME280;20968;42.696;23.360;2024-01-30T12:30:42;97123.28;;;7.72;41.57
34742;BME280;20968;42.696;23.360;2024-01-30T12:33:08;97115.19;;;7.91;40.70
34742;BME280;20968;42.696;23.360;2024-01-30T12:35:35;97118.09;;;7.81;40.62
34742;BME280;20968;42.696;23.360;2024-01-30T12:38:01;97112.94;;;7.53;41.80
34742;BME280;20968;42.696;23.360;2024-01-30T12:40:27;97108.59;;;7.59;40.56
34742;BME280;20968;42.696;23.360;2024-01-30T12:42:53;97106.47;;;7.70;40.69
34742;BME280;20968;42.696;23.360;2024-01-30T12:45:18;97109.84;;;7.81;40.37
34742;BME280;20968;42.696;23.360;2024-01-30T12:47:47;97103.16;;;7.52;40.55
34742;BME280;20968;42.696;23.360;2024-01-30T12:50:13;97100.84;;;7.51;40.73
34742;BME280;20968;42.696;23.360;2024-01-30T12:52:42;97098.78;;;7.88;40.31
34742;BME280;20968;42.696;23.360;2024-01-30T12:55:07;97096.41;;;8.16;40.08